sensor_id;sensor_type;location;lat;lon;timestamp;pressure;altitude;pressure_sealevel;temperature;humidity
12799;BME280;19250;42.646;26.980;2023-05-22T00:00:52;98588.19;;;19.27;51.20
12799;BME280;19250;42.646;26.980;2023-05-22T00:03:20;98584.53;;;19.22;51.62
12799;BME280;19250;42.646;26.980;2023-05-22T00:05:48;98591.16;;;19.26;51.57
12799;BME280;19250;42.646;26.980;2023-05-22T00:08:17;98594.63;;;19.51;51.14
12799;BME280;19250;42.646;26.980;2023-05-22T00:10:44;98585.97;;;19.42;51.34
12799;BME280;19250;42.646;26.980;2023-05-22T00:13:12;98585.91;;;19.49;51.06
12799;BME280;19250;42.646;26.980;2023-05-22T00:15:39;98582.44;;;19.60;51.13
12799;BME280;19250;42.646;26.980;2023-05-22T00:18:06;98578.94;;;19.41;51.43
12799;BME280;19250;42.646;26.980;2023-05-22T00:20:33;98583.00;;;19.50;51.39
12799;BME280;19250;42.646;26.980;2023-05-22T00:23:02;98580.25;;;19.32;52.16
12799;BME280;19250;42.646;26.980;2023-05-22T00:25:29;98584.94;;;19.43;51.84
12799;BME280;19250;42.646;26.980;2023-05-22T00:27:56;98573.81;;;19.51;51.43
12799;BME280;19250;42.646;26.980;2023-05-22T00:30:24;98568.56;;;19.57;51.17
12799;BME280;19250;42.646;26.980;2023-05-22T00:32:51;98575.84;;;19.56;51.45
12799;BME280;19250;42.646;26.980;2023-05-22T00:35:18;98568.09;;;19.78;50.85
12799;BME280;19250;42.646;26.980;2023-05-22T00:37:45;98566.00;;;19.43;51.60
12799;BME280;19250;42.646;26.980;2023-05-22T00:40:13;98573.78;;;19.33;52.33
12799;BME280;19250;42.646;26.980;2023-05-22T00:42:40;98573.19;;;19.31;52.41
12799;BME280;19250;42.646;26.980;2023-05-22T00:45:07;98576.59;;;19.02;53.35
12799;BME280;19250;42.646;26.980;2023-05-22T00:47:36;98589.75;;;18.98;54.20
12799;BME280;19250;42.646;26.980;2023-05-22T00:50:03;98577.84;;;19.24;53.35
12799;BME280;19250;42.646;26.980;2023-05-22T00:52:31;98579.22;;;18.90;54.45
12799;BME280;19250;42.646;26.980;2023-05-22T00:54:58;98578.84;;;18.62;55.42
12799;BME280;19250;42.646;26.980;2023-05-22T00:57:25;98575.88;;;18.70;55.63
12799;BME280;19250;42.646;26.980;2023-05-22T00:59:52;98586.09;;;18.68;55.64
12799;BME280;19250;42.646;26.980;2023-05-22T01:02:19;98580.19;;;18.96;55.14
12799;BME280;19250;42.646;26.980;2023-05-22T01:04:47;98578.91;;;18.56;56.28
12799;BME280;19250;42.646;26.980;2023-05-22T01:07:14;98579.13;;;18.47;57.09
12799;BME280;19250;42.646;26.980;2023-05-22T01:09:42;98581.81;;;18.54;57.53
12799;BME280;19250;42.646;26.980;2023-05-22T01:12:10;98573.31;;;18.51;57.45
12799;BME280;19250;42.646;26.980;2023-05-22T01:14:43;98577.31;;;18.41;58.19
12799;BME280;19250;42.646;26.980;2023-05-22T01:17:14;98576.34;;;18.29;59.08
12799;BME280;19250;42.646;26.980;2023-05-22T01:19:56;98574.38;;;18.50;59.21
12799;BME280;19250;42.646;26.980;2023-05-22T01:25:25;98568.88;;;18.31;60.07
12799;BME280;19250;42.646;26.980;2023-05-22T01:28:01;98571.47;;;18.44;59.76
12799;BME280;19250;42.646;26.980;2023-05-22T01:30:46;98572.09;;;18.15;61.36
12799;BME280;19250;42.646;26.980;2023-05-22T01:33:14;98568.00;;;18.06;62.68
12799;BME280;19250;42.646;26.980;2023-05-22T01:35:42;98569.13;;;18.23;62.62
12799;BME280;19250;42.646;26.980;2023-05-22T01:38:10;98563.97;;;18.22;63.07
12799;BME280;19250;42.646;26.980;2023-05-22T01:40:37;98569.91;;;18.30;62.74
12799;BME280;19250;42.646;26.980;2023-05-22T01:43:05;98571.84;;;18.23;63.54
12799;BME280;19250;42.646;26.980;2023-05-22T01:45:32;98579.00;;;18.05;65.24
12799;BME280;19250;42.646;26.980;2023-05-22T01:48:00;98580.31;;;17.89;66.94
12799;BME280;19250;42.646;26.980;2023-05-22T01:50:27;98578.44;;;17.96;67.44
12799;BME280;19250;42.646;26.980;2023-05-22T01:52:56;98579.88;;;17.99;67.72
12799;BME280;19250;42.646;26.980;2023-05-22T01:55:27;98578.06;;;17.86;69.38
12799;BME280;19250;42.646;26.980;2023-05-22T01:58:02;98579.22;;;18.03;68.78
12799;BME280;19250;42.646;26.980;2023-05-22T02:00:34;98579.69;;;17.93;70.08
12799;BME280;19250;42.646;26.980;2023-05-22T02:03:07;98573.69;;;18.23;68.69
12799;BME280;19250;42.646;26.980;2023-05-22T02:05:37;98575.72;;;18.34;67.77
12799;BME280;19250;42.646;26.980;2023-05-22T02:08:05;98578.25;;;17.91;70.90
12799;BME280;19250;42.646;26.980;2023-05-22T02:10:32;98582.56;;;17.99;71.39
12799;BME280;19250;42.646;26.980;2023-05-22T02:12:59;98578.59;;;18.01;71.67
12799;BME280;19250;42.646;26.980;2023-05-22T02:15:27;98575.03;;;18.07;72.55
12799;BME280;19250;42.646;26.980;2023-05-22T02:17:54;98569.38;;;18.22;71.08
12799;BME280;19250;42.646;26.980;2023-05-22T02:20:22;98576.44;;;17.85;74.24
12799;BME280;19250;42.646;26.980;2023-05-22T02:22:49;98570.75;;;18.00;73.29
12799;BME280;19250;42.646;26.980;2023-05-22T02:25:16;98565.50;;;18.05;73.30
12799;BME280;19250;42.646;26.980;2023-05-22T02:27:43;98572.78;;;18.04;73.62
12799;BME280;19250;42.646;26.980;2023-05-22T02:30:11;98568.25;;;17.98;74.27
12799;BME280;19250;42.646;26.980;2023-05-22T02:32:38;98567.34;;;18.11;73.97
12799;BME280;19250;42.646;26.980;2023-05-22T02:35:05;98569.47;;;18.02;75.40
12799;BME280;19250;42.646;26.980;2023-05-22T02:37:34;98567.53;;;18.16;75.26
12799;BME280;19250;42.646;26.980;2023-05-22T02:40:01;98573.25;;;18.26;74.46
12799;BME280;19250;42.646;26.980;2023-05-22T02:42:30;98574.59;;;18.41;73.52
12799;BME280;19250;42.646;26.980;2023-05-22T02:44:57;98578.53;;;18.45;73.39
12799;BME280;19250;42.646;26.980;2023-05-22T02:47:24;98579.53;;;18.20;75.26
12799;BME280;19250;42.646;26.980;2023-05-22T02:49:51;98577.06;;;18.18;76.12
12799;BME280;19250;42.646;26.980;2023-05-22T02:52:18;98573.41;;;18.06;77.91
12799;BME280;19250;42.646;26.980;2023-05-22T02:54:46;98579.28;;;17.97;79.92
12799;BME280;19250;42.646;26.980;2023-05-22T02:57:13;98577.84;;;17.94;80.64
12799;BME280;19250;42.646;26.980;2023-05-22T02:59:40;98583.13;;;18.07;80.25
12799;BME280;19250;42.646;26.980;2023-05-22T03:02:07;98579.59;;;18.13;79.75
12799;BME280;19250;42.646;26.980;2023-05-22T03:04:34;98583.69;;;18.22;79.55
12799;BME280;19250;42.646;26.980;2023-05-22T03:07:02;98583.84;;;18.27;77.95
12799;BME280;19250;42.646;26.980;2023-05-22T03:09:29;98583.88;;;18.59;76.48
12799;BME280;19250;42.646;26.980;2023-05-22T03:11:58;98587.28;;;18.72;74.63
12799;BME280;19250;42.646;26.980;2023-05-22T03:14:25;98585.31;;;18.86;73.40
12799;BME280;19250;42.646;26.980;2023-05-22T03:16:53;98587.16;;;18.61;75.03
12799;BME280;19250;42.646;26.980;2023-05-22T03:19:21;98583.69;;;18.78;75.12
12799;BME280;19250;42.646;26.980;2023-05-22T03:21:48;98589.31;;;18.77;74.88
12799;BME280;19250;42.646;26.980;2023-05-22T03:24:15;98593.00;;;19.07;73.37
12799;BME280;19250;42.646;26.980;2023-05-22T03:26:41;98589.56;;;19.36;70.67
12799;BME280;19250;42.646;26.980;2023-05-22T03:29:10;98594.50;;;19.21;71.42
12799;BME280;19250;42.646;26.980;2023-05-22T03:31:37;98597.09;;;18.91;73.77
12799;BME280;19250;42.646;26.980;2023-05-22T03:34:04;98599.84;;;18.85;74.51
12799;BME280;19250;42.646;26.980;2023-05-22T03:36:31;98595.63;;;18.71;77.04
12799;BME280;19250;42.646;26.980;2023-05-22T03:38:59;98596.75;;;18.57;78.49
12799;BME280;19250;42.646;26.980;2023-05-22T03:41:26;98600.16;;;18.39;80.82
12799;BME280;19250;42.646;26.980;2023-05-22T03:43:53;98597.19;;;18.47;81.23
12799;BME280;19250;42.646;26.980;2023-05-22T03:46:21;98597.19;;;18.54;79.87
12799;BME280;19250;42.646;26.980;2023-05-22T03:48:48;98602.06;;;18.32;81.45
12799;BME280;19250;42.646;26.980;2023-05-22T03:51:15;98602.16;;;18.57;81.25
12799;BME280;19250;42.646;26.980;2023-05-22T03:53:42;98596.59;;;18.76;77.80
12799;BME280;19250;42.646;26.980;2023-05-22T03:56:09;98595.47;;;18.84;77.74
12799;BME280;19250;42.646;26.980;2023-05-22T03:58:35;98601.75;;;18.78;77.91
12799;BME280;19250;42.646;26.980;2023-05-22T04:01:02;98598.91;;;19.40;74.00
12799;BME280;19250;42.646;26.980;2023-05-22T04:03:30;98599.22;;;19.50;72.15
12799;BME280;19250;42.646;26.980;2023-05-22T04:05:57;98593.13;;;19.55;72.50
12799;BME280;19250;42.646;26.980;2023-05-22T04:08:24;98589.38;;;19.56;71.13
12799;BME280;19250;42.646;26.980;2023-05-22T04:10:51;98589.44;;;19.68;71.13
12799;BME280;19250;42.646;26.980;2023-05-22T04:13:18;98589.66;;;19.84;70.30
12799;BME280;19250;42.646;26.980;2023-05-22T04:15:45;98590.84;;;19.88;69.89
12799;BME280;19250;42.646;26.980;2023-05-22T04:18:14;98585.91;;;19.67;70.15
12799;BME280;19250;42.646;26.980;2023-05-22T04:20:42;98595.38;;;19.58;71.47
12799;BME280;19250;42.646;26.980;2023-05-22T04:23:09;98596.22;;;19.59;71.87
12799;BME280;19250;42.646;26.980;2023-05-22T04:25:36;98606.41;;;19.38;72.56
12799;BME280;19250;42.646;26.980;2023-05-22T04:28:02;98610.28;;;19.24;75.13
12799;BME280;19250;42.646;26.980;2023-05-22T04:30:29;98598.84;;;19.04;77.38
12799;BME280;19250;42.646;26.980;2023-05-22T04:32:58;98603.28;;;19.41;75.63
12799;BME280;19250;42.646;26.980;2023-05-22T04:35:25;98605.97;;;19.41;75.50
12799;BME280;19250;42.646;26.980;2023-05-22T04:37:55;98610.84;;;19.51;74.66
12799;BME280;19250;42.646;26.980;2023-05-22T04:40:22;98616.69;;;19.48;75.15
12799;BME280;19250;42.646;26.980;2023-05-22T04:42:50;98606.34;;;19.63;74.57
12799;BME280;19250;42.646;26.980;2023-05-22T04:45:18;98610.53;;;19.95;71.56
12799;BME280;19250;42.646;26.980;2023-05-22T04:47:45;98610.88;;;20.17;69.09
12799;BME280;19250;42.646;26.980;2023-05-22T04:50:12;98611.34;;;20.55;66.59
12799;BME280;19250;42.646;26.980;2023-05-22T04:52:40;98606.97;;;20.43;66.80
12799;BME280;19250;42.646;26.980;2023-05-22T04:55:09;98613.53;;;20.35;67.67
12799;BME280;19250;42.646;26.980;2023-05-22T04:57:37;98613.00;;;20.56;65.94
12799;BME280;19250;42.646;26.980;2023-05-22T05:00:04;98608.00;;;20.12;68.50
12799;BME280;19250;42.646;26.980;2023-05-22T05:02:32;98614.13;;;20.37;67.98
12799;BME280;19250;42.646;26.980;2023-05-22T05:04:59;98616.84;;;20.37;67.54
12799;BME280;19250;42.646;26.980;2023-05-22T05:07:26;98616.75;;;20.44;67.50
12799;BME280;19250;42.646;26.980;2023-05-22T05:09:53;98615.00;;;20.49;66.86
12799;BME280;19250;42.646;26.980;2023-05-22T05:12:21;98619.16;;;20.63;67.03
12799;BME280;19250;42.646;26.980;2023-05-22T05:14:48;98628.56;;;21.14;63.58
12799;BME280;19250;42.646;26.980;2023-05-22T05:17:15;98618.63;;;21.08;62.88
12799;BME280;19250;42.646;26.980;2023-05-22T05:19:42;98621.84;;;21.40;61.01
12799;BME280;19250;42.646;26.980;2023-05-22T05:22:09;98627.03;;;21.18;61.77
12799;BME280;19250;42.646;26.980;2023-05-22T05:24:36;98617.97;;;21.24;60.06
12799;BME280;19250;42.646;26.980;2023-05-22T05:27:02;98611.34;;;21.08;60.03
12799;BME280;19250;42.646;26.980;2023-05-22T05:29:31;98619.13;;;21.16;59.43
12799;BME280;19250;42.646;26.980;2023-05-22T05:31:58;98612.53;;;21.24;58.30
12799;BME280;19250;42.646;26.980;2023-05-22T05:34:24;98620.31;;;21.09;59.13
12799;BME280;19250;42.646;26.980;2023-05-22T05:36:51;98622.88;;;21.50;58.02
12799;BME280;19250;42.646;26.980;2023-05-22T05:39:21;98620.84;;;21.69;56.86
12799;BME280;19250;42.646;26.980;2023-05-22T05:41:48;98626.41;;;21.62;57.25
12799;BME280;19250;42.646;26.980;2023-05-22T05:44:15;98622.03;;;21.50;56.12
12799;BME280;19250;42.646;26.980;2023-05-22T05:46:43;98622.19;;;21.43;57.25
12799;BME280;19250;42.646;26.980;2023-05-22T05:49:10;98630.44;;;21.48;56.97
12799;BME280;19250;42.646;26.980;2023-05-22T05:51:37;98626.72;;;22.01;55.87
12799;BME280;19250;42.646;26.980;2023-05-22T05:54:04;98631.44;;;21.82;56.02
12799;BME280;19250;42.646;26.980;2023-05-22T05:56:31;98623.56;;;21.92;56.21
12799;BME280;19250;42.646;26.980;2023-05-22T05:58:58;98623.16;;;22.00;55.51
12799;BME280;19250;42.646;26.980;2023-05-22T06:01:25;98621.66;;;22.21;54.65
12799;BME280;19250;42.646;26.980;2023-05-22T06:03:53;98635.13;;;21.76;55.48
12799;BME280;19250;42.646;26.980;2023-05-22T06:06:20;98638.56;;;21.60;55.08
12799;BME280;19250;42.646;26.980;2023-05-22T06:08:50;98637.94;;;21.93;54.18
12799;BME280;19250;42.646;26.980;2023-05-22T06:11:17;98643.00;;;22.01;54.04
12799;BME280;19250;42.646;26.980;2023-05-22T06:13:44;98633.69;;;22.53;52.64
12799;BME280;19250;42.646;26.980;2023-05-22T06:16:10;98635.88;;;22.68;51.13
12799;BME280;19250;42.646;26.980;2023-05-22T06:18:37;98630.78;;;23.05;49.87
12799;BME280;19250;42.646;26.980;2023-05-22T06:21:06;98628.97;;;22.94;49.71
12799;BME280;19250;42.646;26.980;2023-05-22T06:23:33;98635.88;;;23.35;49.17
12799;BME280;19250;42.646;26.980;2023-05-22T06:26:00;98640.28;;;23.74;48.48
12799;BME280;19250;42.646;26.980;2023-05-22T06:28:27;98635.84;;;24.33;46.39
12799;BME280;19250;42.646;26.980;2023-05-22T06:30:53;98633.72;;;24.13;45.83
12799;BME280;19250;42.646;26.980;2023-05-22T06:33:21;98639.78;;;23.99;46.71
12799;BME280;19250;42.646;26.980;2023-05-22T06:35:48;98636.81;;;23.78;46.49
12799;BME280;19250;42.646;26.980;2023-05-22T06:38:16;98638.06;;;23.93;46.60
12799;BME280;19250;42.646;26.980;2023-05-22T06:40:43;98638.75;;;24.05;45.58
12799;BME280;19250;42.646;26.980;2023-05-22T06:43:10;98642.50;;;23.99;45.35
12799;BME280;19250;42.646;26.980;2023-05-22T06:45:37;98637.34;;;24.46;45.42
12799;BME280;19250;42.646;26.980;2023-05-22T06:48:04;98635.50;;;24.51;45.04
12799;BME280;19250;42.646;26.980;2023-05-22T06:50:31;98641.09;;;24.93;44.23
12799;BME280;19250;42.646;26.980;2023-05-22T06:52:58;98639.28;;;25.04;42.56
12799;BME280;19250;42.646;26.980;2023-05-22T06:55:27;98640.53;;;24.16;43.37
12799;BME280;19250;42.646;26.980;2023-05-22T06:57:53;98629.84;;;24.31;44.51
12799;BME280;19250;42.646;26.980;2023-05-22T07:00:20;98632.25;;;24.27;44.51
12799;BME280;19250;42.646;26.980;2023-05-22T07:02:48;98627.47;;;24.40;45.42
12799;BME280;19250;42.646;26.980;2023-05-22T07:05:15;98640.63;;;24.48;43.00
12799;BME280;19250;42.646;26.980;2023-05-22T07:07:42;98633.91;;;24.55;41.96
12799;BME280;19250;42.646;26.980;2023-05-22T07:10:09;98643.41;;;24.79;41.95
12799;BME280;19250;42.646;26.980;2023-05-22T07:12:38;98639.72;;;24.90;41.47
12799;BME280;19250;42.646;26.980;2023-05-22T07:15:05;98644.13;;;24.70;40.52
12799;BME280;19250;42.646;26.980;2023-05-22T07:17:36;98639.59;;;24.80;41.10
12799;BME280;19250;42.646;26.980;2023-05-22T07:20:03;98642.78;;;25.31;40.56
12799;BME280;19250;42.646;26.980;2023-05-22T07:22:31;98644.28;;;25.54;40.61
12799;BME280;19250;42.646;26.980;2023-05-22T07:24:57;98650.13;;;25.67;41.42
12799;BME280;19250;42.646;26.980;2023-05-22T07:27:24;98646.63;;;26.34;37.35
12799;BME280;19250;42.646;26.980;2023-05-22T07:29:52;98643.75;;;26.04;36.22
12799;BME280;19250;42.646;26.980;2023-05-22T07:32:19;98642.03;;;25.45;37.42
12799;BME280;19250;42.646;26.980;2023-05-22T07:34:46;98644.38;;;25.27;38.04
12799;BME280;19250;42.646;26.980;2023-05-22T07:37:13;98639.50;;;24.70;39.12
12799;BME280;19250;42.646;26.980;2023-05-22T07:39:40;98642.47;;;24.96;38.12
12799;BME280;19250;42.646;26.980;2023-05-22T07:42:07;98644.47;;;24.78;38.34
12799;BME280;19250;42.646;26.980;2023-05-22T07:44:34;98648.31;;;25.41;37.54
12799;BME280;19250;42.646;26.980;2023-05-22T07:47:02;98635.94;;;24.97;37.89
12799;BME280;19250;42.646;26.980;2023-05-22T07:49:29;98646.59;;;24.71;38.75
12799;BME280;19250;42.646;26.980;2023-05-22T07:51:56;98639.28;;;24.50;38.99
12799;BME280;19250;42.646;26.980;2023-05-22T07:54:23;98639.13;;;24.35;39.37
12799;BME280;19250;42.646;26.980;2023-05-22T07:56:50;98635.81;;;25.13;38.14
12799;BME280;19250;42.646;26.980;2023-05-22T07:59:17;98641.63;;;25.22;38.12
12799;BME280;19250;42.646;26.980;2023-05-22T08:01:45;98649.50;;;25.18;37.78
12799;BME280;19250;42.646;26.980;2023-05-22T08:04:14;98645.66;;;25.51;37.54
12799;BME280;19250;42.646;26.980;2023-05-22T08:06:41;98643.94;;;25.45;37.90
12799;BME280;19250;42.646;26.980;2023-05-22T08:09:08;98648.84;;;25.85;37.68
12799;BME280;19250;42.646;26.980;2023-05-22T08:11:35;98644.88;;;26.08;37.91
12799;BME280;19250;42.646;26.980;2023-05-22T08:14:04;98643.59;;;25.68;38.11
12799;BME280;19250;42.646;26.980;2023-05-22T08:16:31;98641.25;;;25.92;37.15
12799;BME280;19250;42.646;26.980;2023-05-22T08:18:58;98637.31;;;25.78;37.46
12799;BME280;19250;42.646;26.980;2023-05-22T08:21:27;98638.75;;;25.90;37.24
12799;BME280;19250;42.646;26.980;2023-05-22T08:23:53;98634.34;;;26.41;35.53
12799;BME280;19250;42.646;26.980;2023-05-22T08:26:20;98646.56;;;26.19;35.10
12799;BME280;19250;42.646;26.980;2023-05-22T08:28:47;98651.00;;;25.78;36.24
12799;BME280;19250;42.646;26.980;2023-05-22T08:31:14;98653.53;;;25.94;35.83
12799;BME280;19250;42.646;26.980;2023-05-22T08:33:41;98647.94;;;25.69;36.02
12799;BME280;19250;42.646;26.980;2023-05-22T08:36:08;98637.88;;;26.37;36.19
12799;BME280;19250;42.646;26.980;2023-05-22T08:38:36;98640.41;;;26.79;35.43
12799;BME280;19250;42.646;26.980;2023-05-22T08:41:03;98642.28;;;26.53;34.96
12799;BME280;19250;42.646;26.980;2023-05-22T08:43:31;98635.47;;;26.76;34.48
12799;BME280;19250;42.646;26.980;2023-05-22T08:45:59;98639.09;;;27.17;34.24
12799;BME280;19250;42.646;26.980;2023-05-22T08:48:28;98643.44;;;27.53;33.01
12799;BME280;19250;42.646;26.980;2023-05-22T08:50:55;98636.91;;;27.14;33.46
12799;BME280;19250;42.646;26.980;2023-05-22T08:53:23;98641.81;;;27.17;34.51
12799;BME280;19250;42.646;26.980;2023-05-22T08:55:52;98629.50;;;27.39;33.44
12799;BME280;19250;42.646;26.980;2023-05-22T08:58:19;98632.78;;;27.51;34.09
12799;BME280;19250;42.646;26.980;2023-05-22T09:00:46;98629.09;;;27.86;33.50
12799;BME280;19250;42.646;26.980;2023-05-22T09:03:13;98624.69;;;27.95;33.07
12799;BME280;19250;42.646;26.980;2023-05-22T09:05:40;98621.84;;;29.08;32.36
12799;BME280;19250;42.646;26.980;2023-05-22T09:08:09;98621.72;;;28.90;32.22
12799;BME280;19250;42.646;26.980;2023-05-22T09:10:36;98616.13;;;30.10;29.83
12799;BME280;19250;42.646;26.980;2023-05-22T09:13:05;98623.47;;;29.96;30.30
12799;BME280;19250;42.646;26.980;2023-05-22T09:15:34;98604.31;;;29.04;30.50
12799;BME280;19250;42.646;26.980;2023-05-22T09:18:02;98631.50;;;28.62;30.57
12799;BME280;19250;42.646;26.980;2023-05-22T09:20:34;98626.59;;;28.05;31.72
12799;BME280;19250;42.646;26.980;2023-05-22T09:23:09;98613.84;;;29.12;29.52
12799;BME280;19250;42.646;26.980;2023-05-22T09:25:37;98621.44;;;29.54;29.36
12799;BME280;19250;42.646;26.980;2023-05-22T09:28:05;98615.91;;;29.30;29.43
12799;BME280;19250;42.646;26.980;2023-05-22T09:30:33;98617.47;;;29.07;30.15
12799;BME280;19250;42.646;26.980;2023-05-22T09:33:01;98616.63;;;28.73;30.73
12799;BME280;19250;42.646;26.980;2023-05-22T09:35:30;98624.56;;;28.26;31.41
12799;BME280;19250;42.646;26.980;2023-05-22T09:37:58;98607.09;;;28.12;31.67
12799;BME280;19250;42.646;26.980;2023-05-22T09:40:26;98613.13;;;28.14;31.63
12799;BME280;19250;42.646;26.980;2023-05-22T09:42:54;98619.84;;;28.85;31.19
12799;BME280;19250;42.646;26.980;2023-05-22T09:45:22;98620.38;;;29.50;29.83
12799;BME280;19250;42.646;26.980;2023-05-22T09:47:51;98611.66;;;28.80;30.63
12799;BME280;19250;42.646;26.980;2023-05-22T09:50:18;98608.47;;;29.31;30.13
12799;BME280;19250;42.646;26.980;2023-05-22T09:52:46;98617.88;;;28.91;31.36
12799;BME280;19250;42.646;26.980;2023-05-22T09:55:16;98611.06;;;29.46;30.83
12799;BME280;19250;42.646;26.980;2023-05-22T09:57:47;98612.31;;;28.57;31.22
12799;BME280;19250;42.646;26.980;2023-05-22T10:00:17;98592.97;;;27.74;32.38
12799;BME280;19250;42.646;26.980;2023-05-22T10:02:48;98602.97;;;28.19;31.95
12799;BME280;19250;42.646;26.980;2023-05-22T10:05:16;98610.81;;;28.36;31.93
12799;BME280;19250;42.646;26.980;2023-05-22T10:07:48;98603.41;;;29.66;30.95
12799;BME280;19250;42.646;26.980;2023-05-22T10:10:19;98599.66;;;29.34;30.64
12799;BME280;19250;42.646;26.980;2023-05-22T10:12:50;98601.34;;;28.13;32.01
12799;BME280;19250;42.646;26.980;2023-05-22T10:15:21;98595.28;;;27.27;33.51
12799;BME280;19250;42.646;26.980;2023-05-22T10:17:50;98592.56;;;27.12;33.32
12799;BME280;19250;42.646;26.980;2023-05-22T10:20:20;98582.28;;;28.37;31.92
12799;BME280;19250;42.646;26.980;2023-05-22T10:22:47;98578.84;;;28.11;31.95
12799;BME280;19250;42.646;26.980;2023-05-22T10:25:16;98581.19;;;27.74;32.55
12799;BME280;19250;42.646;26.980;2023-05-22T10:27:44;98563.16;;;28.99;31.25
12799;BME280;19250;42.646;26.980;2023-05-22T10:30:31;98578.09;;;29.17;30.92
12799;BME280;19250;42.646;26.980;2023-05-22T10:33:04;98571.69;;;28.98;31.64
12799;BME280;19250;42.646;26.980;2023-05-22T10:35:35;98582.34;;;29.04;32.09
12799;BME280;19250;42.646;26.980;2023-05-22T10:38:09;98580.44;;;28.66;32.62
12799;BME280;19250;42.646;26.980;2023-05-22T10:40:40;98571.84;;;27.85;33.25
12799;BME280;19250;42.646;26.980;2023-05-22T10:43:10;98578.72;;;27.77;33.52
12799;BME280;19250;42.646;26.980;2023-05-22T10:45:37;98575.63;;;28.48;33.33
12799;BME280;19250;42.646;26.980;2023-05-22T10:48:07;98561.13;;;30.29;31.32
12799;BME280;19250;42.646;26.980;2023-05-22T10:50:36;98554.88;;;32.70;27.93
12799;BME280;19250;42.646;26.980;2023-05-22T10:53:22;98567.03;;;32.11;28.29
12799;BME280;19250;42.646;26.980;2023-05-22T10:55:50;98576.31;;;30.82;31.64
12799;BME280;19250;42.646;26.980;2023-05-22T10:58:24;98566.53;;;28.91;35.90
12799;BME280;19250;42.646;26.980;2023-05-22T11:01:07;98569.94;;;27.85;35.95
12799;BME280;19250;42.646;26.980;2023-05-22T11:03:54;98572.81;;;27.45;36.12
12799;BME280;19250;42.646;26.980;2023-05-22T11:06:33;98576.13;;;27.17;35.99
12799;BME280;19250;42.646;26.980;2023-05-22T11:09:16;98570.94;;;26.95;36.87
12799;BME280;19250;42.646;26.980;2023-05-22T11:11:44;98556.69;;;26.98;36.81
12799;BME280;19250;42.646;26.980;2023-05-22T11:14:12;98524.13;;;27.01;37.02
12799;BME280;19250;42.646;26.980;2023-05-22T11:16:42;98572.84;;;27.15;37.64
12799;BME280;19250;42.646;26.980;2023-05-22T11:19:13;98573.50;;;27.81;36.25
12799;BME280;19250;42.646;26.980;2023-05-22T11:21:42;98572.56;;;26.71;38.31
12799;BME280;19250;42.646;26.980;2023-05-22T11:24:10;98579.81;;;26.15;37.83
12799;BME280;19250;42.646;26.980;2023-05-22T11:26:41;98583.88;;;25.97;37.27
12799;BME280;19250;42.646;26.980;2023-05-22T11:29:09;98576.75;;;25.86;38.44
12799;BME280;19250;42.646;26.980;2023-05-22T11:31:36;98592.78;;;25.72;39.80
12799;BME280;19250;42.646;26.980;2023-05-22T11:34:04;98585.88;;;25.55;41.97
12799;BME280;19250;42.646;26.980;2023-05-22T11:36:33;98582.19;;;25.34;41.15
12799;BME280;19250;42.646;26.980;2023-05-22T11:39:02;98556.53;;;25.92;40.46
12799;BME280;19250;42.646;26.980;2023-05-22T11:41:32;98570.34;;;26.52;38.72
12799;BME280;19250;42.646;26.980;2023-05-22T11:44:00;98582.38;;;26.46;38.02
12799;BME280;19250;42.646;26.980;2023-05-22T11:46:27;98581.03;;;26.54;37.72
12799;BME280;19250;42.646;26.980;2023-05-22T11:48:55;98582.16;;;26.83;37.92
12799;BME280;19250;42.646;26.980;2023-05-22T11:51:22;98586.31;;;28.00;36.64
12799;BME280;19250;42.646;26.980;2023-05-22T11:53:51;98577.28;;;27.95;36.89
12799;BME280;19250;42.646;26.980;2023-05-22T11:56:21;98577.56;;;29.67;34.32
12799;BME280;19250;42.646;26.980;2023-05-22T11:58:49;98581.00;;;29.83;34.75
12799;BME280;19250;42.646;26.980;2023-05-22T12:01:16;98566.47;;;28.96;35.81
12799;BME280;19250;42.646;26.980;2023-05-22T12:03:44;98565.63;;;28.67;36.01
12799;BME280;19250;42.646;26.980;2023-05-22T12:06:11;98571.00;;;28.82;35.83
12799;BME280;19250;42.646;26.980;2023-05-22T12:08:39;98571.66;;;29.32;35.26
12799;BME280;19250;42.646;26.980;2023-05-22T12:11:10;98568.72;;;28.12;36.95
12799;BME280;19250;42.646;26.980;2023-05-22T12:13:38;98572.50;;;28.98;36.09
12799;BME280;19250;42.646;26.980;2023-05-22T12:16:17;98573.03;;;29.82;34.51
12799;BME280;19250;42.646;26.980;2023-05-22T12:18:46;98567.13;;;30.31;33.86
12799;BME280;19250;42.646;26.980;2023-05-22T12:21:13;98562.41;;;32.42;31.63
12799;BME280;19250;42.646;26.980;2023-05-22T12:23:47;98556.81;;;33.75;28.97
12799;BME280;19250;42.646;26.980;2023-05-22T12:26:16;98557.38;;;32.58;30.22
12799;BME280;19250;42.646;26.980;2023-05-22T12:28:43;98559.41;;;32.88;30.15
12799;BME280;19250;42.646;26.980;2023-05-22T12:31:19;98556.78;;;31.43;31.49
12799;BME280;19250;42.646;26.980;2023-05-22T12:33:46;98551.59;;;30.02;33.83
12799;BME280;19250;42.646;26.980;2023-05-22T12:36:13;98556.72;;;29.14;35.61
12799;BME280;19250;42.646;26.980;2023-05-22T12:38:41;98555.97;;;29.03;35.68
12799;BME280;19250;42.646;26.980;2023-05-22T12:41:08;98564.88;;;28.90;35.55
12799;BME280;19250;42.646;26.980;2023-05-22T12:43:36;98569.47;;;28.71;35.48
12799;BME280;19250;42.646;26.980;2023-05-22T12:46:04;98566.03;;;27.96;37.38
12799;BME280;19250;42.646;26.980;2023-05-22T12:48:31;98564.00;;;27.53;38.17
12799;BME280;19250;42.646;26.980;2023-05-22T12:50:58;98566.56;;;25.71;42.31
12799;BME280;19250;42.646;26.980;2023-05-22T12:53:25;98568.19;;;24.83;45.27
12799;BME280;19250;42.646;26.980;2023-05-22T12:55:52;98573.78;;;24.72;45.86
12799;BME280;19250;42.646;26.980;2023-05-22T12:58:38;98563.03;;;24.28;48.23